Crestview, FL

9:35 AM CDT on April 23, 2017 (GMT -0500)
Sikes | | Change Station

Elev 210 ft 30.78 °N, 86.52 °W | Updated 7 minutes ago

Heavy Thunderstorms and Rain
Heavy Thunderstorm Rain Mist
68 °F
Feels Like 68 °F
N
12
Wind Variable Wind from NW

Today
High -- | Low -- °F
--% Chance of Precip.
Yesterday
High -- | Low -- °F
Precip. -- in
Pressure 29.86 in
Visibility 1.5 miles
Clouds Scattered Clouds 1000 ft
Mostly Cloudy 2900 ft
Overcast 9000 ft
Dew Point 66 °F
Humidity 93%
Rainfall 0.03 in
Snow Depth Not available.
6:09 AM 7:19 PM
Waning Crescent, 11% visible
SPECI KCEW 231428Z AUTO 32010KT 1 1/2SM +TSRA BR SCT010 BKN029 OVC090 20/19 A2986 RMK AO2 LTG DSNT SW TSB21 P0010 T02000189 $
Pressure 29.86 in
Visibility 1.5 miles
Clouds Scattered Clouds 1000 ft
Mostly Cloudy 2900 ft
Overcast 9000 ft
Dew Point 66 °F
Humidity 93%
Rainfall 0.03 in
Snow Depth Not available.
6:09 AM 7:19 PM
Waning Crescent, 11% visible
SPECI KCEW 231428Z AUTO 32010KT 1 1/2SM +TSRA BR SCT010 BKN029 OVC090 20/19 A2986 RMK AO2 LTG DSNT SW TSB21 P0010 T02000189 $

Get Severe Weather Alerts

Thanks for signing up!

Be on the lookout for a verification email in your inbox.

You'll start receiving the daily forecast at 8 AM.

×

10-Day Weather Forecast

Almanac

Astronomy

Apr. 23, 2017 Rise Set
Actual Time
Civil Twilight
Nautical Twilight
Astronomical Twilight
Moon
Length of Visible Light
Length of Day
Tomorrow will be .
, % of the Moon is Illuminated

Today's Extremes

State Highs State Lows

Community

WunderPhotos

WunderBlog® & News

Nearby

Air Quality

  Air Quality AQ Index Pollutant
Not available.

Snow Depth

Station Depth Elevation

Earthquake Activity

City Distance Mag. Time & Date
Minimum magnitude displayed is 2.5.

Coastal Water Temperatures

Place Temperature

Stations

Nearby Weather Stations

Station Location Temp. Windchill Dew Point Humidity Wind Precip. Elev Updated Type
                   

Watches & Warnings

There are currently no watches in effect.